Jackson, MS (39201)

6:56 AM CST on February 14, 2016 (GMT -0600)
Belhaven | | Change Station
CLOSE
Current Station
Personal Weather Station
Location: Jackson, MS
Elevation: 318 ft
Nearby Weather Stations

Elev 318 ft 32.32 °N, 90.16 °W | Updated 27 seconds ago

Overcast
Overcast
41.7 °F
Feels Like 42 °F
N
2.0
Wind Variable Wind from NE
Gusts 2.5 mph

Today
High -- | Low -- °F
--% Chance of Precip.
Yesterday
High -- | Low -- °F
Precip. -- in
Pressure 30.22 in
Visibility 10.0 miles
Clouds Overcast 6000 ft
Windchill 42 °F
Dew Point 15 °F
Humidity 34%
Rainfall 0.00 in
Snow Depth Not available.
6:44 AM 5:45 PM
Waxing Crescent, 41% visible
METAR KHKS 141253Z AUTO 13011KT 10SM OVC060 04/M09 A3023 RMK AO2 SLP234 T00441089
Pressure 30.22 in
Visibility 10.0 miles
Clouds Overcast 6000 ft
Windchill 42 °F
Dew Point 15 °F
Humidity 34%
Rainfall 0.00 in
Snow Depth Not available.
6:44 AM 5:45 PM
Waxing Crescent, 41% visible
METAR KHKS 141253Z AUTO 13011KT 10SM OVC060 04/M09 A3023 RMK AO2 SLP234 T00441089

10-Day Weather Forecast

Almanac

Astronomy

Feb. 14, 2016 Rise Set
Actual Time
Civil Twilight
Nautical Twilight
Astronomical Twilight
Moon
Length of Visible Light
Length of Day
Tomorrow will be .
, % of the Moon is Illuminated

Today's Extremes

State Highs State Lows

Community

WunderPhotos

Upload Photos

1,892,775 photos uploaded!

WunderBlog® & News

Nearby

Air Quality

  Air Quality AQ Index Pollutant
Not available.

Snow Depth

Station Depth Elevation

Earthquake Activity

City Distance Mag. Time & Date
Minimum magnitude displayed is 2.5.

Coastal Water Temperatures

Place Temperature

Stations

Nearby Weather Stations

Station Location Temp. Windchill Dew Point Humidity Wind Precip. Elev Updated Type
                   

Watches & Warnings

There are currently no watches in effect.